TAFOR
Diposting tanggal: 10 Juni 2019

Pukul :

Isi :

TAF WAGI 090500Z 0906/0918 27003KT 9999 SCT012 TEMPO 0907/0911 5000 TS FEW010CB BKN011=